sim
Sign-in with your pilot id or email,
or register
Callsign
Passwort

Schedule Details

Flight Number: OEO5871
Departure: Hannover Langenhagen Airport (EDDV) at 06:05
Arrival: Fuerteventura Airport (GCFV) at 11:15

Weather Information
Getting current METAR information for EDDV 172220Z 23007KT 9999 BKN025 19/16 Q1008
Getting current METAR information for GCFV 172200Z 03007KT CAVOK 24/20 Q1013

Schedule Frequency

Route Map